الصفحة الرئيسية
METAR-TAF:

METAR-TAF

مطار :

تشيتا, روسيا

دائرة عرض: 52-05N, خط طول: 113-29E, ارتفاع: 685 متر

مراقبة الطقس الحالي

تاريخ ووقت الإصدار 17 دقيقة قبل الساعة 16:00UTC
ريح 4 عقدة من الغرب, الاتجاه يتراوح بين الجنوب/الجنوب الغربي و الشمال الغربي
درجة الحرارة 4°درجة مئوية
الرطوبة 41%
ضغط 1021 hPa
الرؤية 10 كم أو أكثر

METAR: UIAA 221600Z 27002MPS 200V310 9999 NSC 04/M08 Q1021 R29/CLRD70 NOSIG RMK QFE707/0943

زمن: 01:17 (16:17 UTC)

توقعات

تاريخ ووقت الإصدار 2ساعات و 17 دقيقة قبل الساعة 14:00UTC
التوقعات صالحة من22 الساعة 15 UTC إلى 23 الساعة 15 UTC
ريح 6 عقدة من الغرب
الرؤية 10 كم أو أكثر

TAF: UIAA 221400Z 2215/2315 28003MPS 9999 NSC

أرصاد الطقس والتوقعات من أكثر من 4000 مطار (تقارير الطقس للمطار METAR والتنبؤ بالطقس بالمطارTAF).

المحطات المتاحة هي النقط الصفراء والحمراء على الخريطة.

حرك المؤشر فوق النقطة لمعرفة اسم المحطة.

ثم انقر لمعرفة أرصاد وتوقعات الطقس.

لتغيير الخارطة: اضغط على الأزرار الخضراء مع رمز الصليب الأسود للتكبير. على الزر الأخضر مع شرطة للتصغير، أو على الأسهم الخضراء للخرائط المجاورة.


METAR-TAF: